Union Ranger — SYMB — position and weather

sailwx.info

Track history (hours):
 
Tides and Currents Weather Stations Pressure Air Temp Water Temp Dewpoint Dewpoint Depression Visibility Wind Speed Wind Dir Waves Ship Positions

Union Ranger

Last reported at 2015-Feb-14 08:34 UTC. Time now 2015-Mar-26 22:35 UTC.
Position S 23°38' W 040°48'.
Warning: this ship's position is 40 days out of date.

Length 185 m; draft 5.1 m.

Type: Ship. MMSI: 240070000.

Date/timePositionNaut miles runAvg speedWind from/ knotsBaromVisibWave heightAir tempDewpointWater temp
2015-Feb-14 08:34S 23°38' W 040°48'10 9.9
2015-Feb-14 07:32S 23°44' W 040°57'1510.9
2015-Feb-14 06:12S 23°52' W 041°10'711.7
2015-Feb-14 05:34S 23°57' W 041°16'1111.4
2015-Feb-14 04:34S 24°05' W 041°26'1311.3
2015-Feb-14 03:25S 24°14' W 041°36'1311.5
2015-Feb-14 02:15S 24°22' W 041°47'811.7
2015-Feb-14 01:33S 24°28' W 041°54'3511.7
2015-Feb-13 22:33S 24°51' W 042°23'  
Track history (hours):
 
Tides and Currents Weather Stations Pressure Air Temp Water Temp Dewpoint Dewpoint Depression Visibility Wind Speed Wind Dir Waves Ship Positions

Union Ranger

Last reported at 2015-Feb-14 08:34 UTC. Time now 2015-Mar-26 22:35 UTC.
Position S 23°38' W 040°48'.
Warning: this ship's position is 40 days out of date.

Length 185 m; draft 5.1 m.

Type: Ship. MMSI: 240070000.

Date/timePositionNaut miles runAvg speedWind from/ knotsBaromVisibWave heightAir tempDewpointWater temp
2015-Feb-14 08:34S 23°38' W 040°48'10 9.9
2015-Feb-14 07:32S 23°44' W 040°57'1510.9
2015-Feb-14 06:12S 23°52' W 041°10'711.7
2015-Feb-14 05:34S 23°57' W 041°16'1111.4
2015-Feb-14 04:34S 24°05' W 041°26'1311.3
2015-Feb-14 03:25S 24°14' W 041°36'1311.5
2015-Feb-14 02:15S 24°22' W 041°47'811.7
2015-Feb-14 01:33S 24°28' W 041°54'3511.7
2015-Feb-13 22:33S 24°51' W 042°23'  

Dump ship's entire track history